createdAt,value
2023-04-18T00:01:58.535Z,7.10
2023-04-18T00:04:26.053Z,6.30
2023-04-18T00:06:52.875Z,6.40
2023-04-18T00:09:20.149Z,7.10
2023-04-18T00:11:47.420Z,6.47
2023-04-18T00:14:14.725Z,6.73
2023-04-18T00:16:42.393Z,6.00
2023-04-18T00:19:10.412Z,6.23
2023-04-18T00:21:37.316Z,5.70
2023-04-18T00:24:04.195Z,6.43
2023-04-18T00:26:31.009Z,6.40
2023-04-18T00:28:58.213Z,6.80
2023-04-18T00:31:25.531Z,6.83
2023-04-18T00:33:52.449Z,6.67
2023-04-18T00:36:19.629Z,6.33
2023-04-18T00:38:46.747Z,6.13
2023-04-18T00:41:13.899Z,6.40
2023-04-18T00:43:40.722Z,6.50
2023-04-18T00:46:08.020Z,6.30
2023-04-18T00:48:34.905Z,7.10
2023-04-18T00:51:02.026Z,6.80
2023-04-18T00:53:29.309Z,6.10
2023-04-18T00:55:56.486Z,6.73
2023-04-18T00:58:24.056Z,6.70
2023-04-18T01:00:52.070Z,7.17
2023-04-18T01:03:18.882Z,6.97
2023-04-18T01:05:46.573Z,8.37
2023-04-18T01:08:13.811Z,6.40
2023-04-18T01:10:40.756Z,7.10
2023-04-18T01:13:14.618Z,7.80
2023-04-18T01:15:46.156Z,7.40
2023-04-18T01:18:13.895Z,7.67
2023-04-18T01:20:45.809Z,8.77
2023-04-18T01:23:12.791Z,7.57
2023-04-18T01:25:39.741Z,7.97
2023-04-18T01:28:07.223Z,8.03
2023-04-18T01:30:34.446Z,8.50
2023-04-18T01:33:03.144Z,8.97
2023-04-18T01:35:30.522Z,8.13
2023-04-18T01:37:57.898Z,8.80
2023-04-18T01:40:25.206Z,9.00
2023-04-18T01:42:52.223Z,9.00
2023-04-18T01:45:20.022Z,7.50
2023-04-18T01:47:47.161Z,8.07
2023-04-18T01:50:14.488Z,8.90
2023-04-18T01:52:41.343Z,8.37
2023-04-18T01:55:08.608Z,7.90
2023-04-18T01:57:38.305Z,7.23
2023-04-18T02:00:06.949Z,8.07
2023-04-18T02:02:34.311Z,7.50
2023-04-18T02:05:01.377Z,7.60
2023-04-18T02:07:28.169Z,8.07
2023-04-18T02:09:55.471Z,8.50
2023-04-18T02:12:22.694Z,8.60
2023-04-18T02:14:53.408Z,8.10
2023-04-18T02:17:25.668Z,7.50
2023-04-18T02:19:52.385Z,8.67
2023-04-18T02:22:19.577Z,8.33
2023-04-18T02:24:46.418Z,8.30
2023-04-18T02:27:13.628Z,8.10
2023-04-18T02:29:40.542Z,8.13
2023-04-18T02:32:08.241Z,7.73
2023-04-18T02:34:36.595Z,8.70
2023-04-18T02:37:04.155Z,8.67
2023-04-18T02:39:31.585Z,9.33
2023-04-18T02:41:58.757Z,9.07
2023-04-18T02:44:27.203Z,9.87
2023-04-18T02:46:54.301Z,8.87
2023-04-18T02:49:21.451Z,8.87
2023-04-18T02:51:48.653Z,9.13
2023-04-18T02:54:16.013Z,9.23
2023-04-18T02:56:43.366Z,9.60
2023-04-18T02:59:10.656Z,9.40
2023-04-18T03:01:37.885Z,8.80
2023-04-18T03:04:04.957Z,8.73
2023-04-18T03:06:31.852Z,9.67
2023-04-18T03:08:58.688Z,9.90
2023-04-18T03:11:25.360Z,9.63
2023-04-18T03:13:52.098Z,9.23
2023-04-18T03:16:18.916Z,8.80
2023-04-18T03:18:45.748Z,8.93
2023-04-18T03:21:12.561Z,9.60
2023-04-18T03:23:39.266Z,9.13
2023-04-18T03:26:07.502Z,8.30
2023-04-18T03:28:34.440Z,9.13
2023-04-18T03:31:01.298Z,9.87
2023-04-18T03:33:28.802Z,10.00
2023-04-18T03:35:55.613Z,9.90
2023-04-18T03:38:22.458Z,10.43
2023-04-18T03:40:49.328Z,10.90
2023-04-18T03:43:16.185Z,11.70
2023-04-18T03:45:44.195Z,10.53
2023-04-18T03:48:11.088Z,11.27
2023-04-18T03:50:37.778Z,12.17
2023-04-18T03:53:04.506Z,11.93
2023-04-18T03:55:31.369Z,12.43
2023-04-18T03:57:59.156Z,11.53
2023-04-18T04:00:26.403Z,10.43
2023-04-18T04:02:53.300Z,11.10
2023-04-18T04:05:20.171Z,11.83
2023-04-18T04:07:47.190Z,12.27
2023-04-18T04:10:13.922Z,12.90
2023-04-18T04:12:40.574Z,12.93
2023-04-18T04:15:07.743Z,13.13
2023-04-18T04:17:34.888Z,13.23
2023-04-18T04:20:02.157Z,15.80
2023-04-18T04:22:28.817Z,13.50
2023-04-18T04:24:57.820Z,14.57
2023-04-18T04:27:25.104Z,14.17
2023-04-18T04:29:54.685Z,14.13
2023-04-18T04:32:21.657Z,14.40
2023-04-18T04:34:49.396Z,14.70
2023-04-18T04:37:18.650Z,13.63
2023-04-18T04:39:46.267Z,14.67
2023-04-18T04:42:13.347Z,12.77
2023-04-18T04:44:41.685Z,13.50
2023-04-18T04:47:08.545Z,12.87
2023-04-18T04:49:35.555Z,14.10
2023-04-18T04:52:03.047Z,13.50
2023-04-18T04:54:30.357Z,13.13
2023-04-18T04:56:57.229Z,13.07
2023-04-18T04:59:24.017Z,13.47
2023-04-18T05:01:51.011Z,13.57
2023-04-18T05:04:18.558Z,13.33
2023-04-18T05:06:46.171Z,14.07
2023-04-18T05:09:13.469Z,14.80
2023-04-18T05:11:40.310Z,14.77
2023-04-18T05:14:07.272Z,14.20
2023-04-18T05:16:34.103Z,14.63
2023-04-18T05:19:00.956Z,14.53
2023-04-18T05:21:28.715Z,14.17
2023-04-18T05:23:56.310Z,14.43
2023-04-18T05:26:23.312Z,16.10
2023-04-18T05:28:50.511Z,13.90
2023-04-18T05:31:17.344Z,13.63
2023-04-18T05:33:44.219Z,16.00
2023-04-18T05:36:11.405Z,13.03
2023-04-18T05:38:38.179Z,14.47
2023-04-18T05:41:05.014Z,14.57
2023-04-18T05:43:31.834Z,16.10
2023-04-18T05:45:58.570Z,16.17
2023-04-18T05:48:25.755Z,15.57
2023-04-18T05:50:52.541Z,15.03
2023-04-18T05:53:19.297Z,15.87
2023-04-18T05:55:48.589Z,16.47
2023-04-18T05:58:15.795Z,15.43
2023-04-18T06:00:43.091Z,16.20
2023-04-18T06:03:11.192Z,15.60
2023-04-18T06:05:38.578Z,15.60
2023-04-18T06:08:05.990Z,16.27
2023-04-18T06:10:33.110Z,16.67
2023-04-18T06:12:59.791Z,17.40
2023-04-18T06:15:26.472Z,17.80
2023-04-18T06:17:53.296Z,17.27
2023-04-18T06:20:20.201Z,17.90
2023-04-18T06:22:46.953Z,17.03
2023-04-18T06:25:13.786Z,18.27
2023-04-18T06:27:40.571Z,17.97
2023-04-18T06:30:08.253Z,17.70
2023-04-18T06:32:35.248Z,18.50
2023-04-18T06:35:03.692Z,18.00
2023-04-18T06:37:30.545Z,16.27
2023-04-18T06:39:57.246Z,18.50
2023-04-18T06:42:24.024Z,17.93
2023-04-18T06:44:51.134Z,18.30
2023-04-18T06:47:18.338Z,18.30
2023-04-18T06:49:45.113Z,17.90
2023-04-18T06:52:11.884Z,17.27
2023-04-18T06:54:38.583Z,17.90
2023-04-18T06:57:05.496Z,16.50
2023-04-18T06:59:32.231Z,17.40
2023-04-18T07:01:58.981Z,17.10
2023-04-18T07:04:25.867Z,17.53
2023-04-18T07:06:52.748Z,18.70
2023-04-18T07:09:20.056Z,17.70
2023-04-18T07:11:46.812Z,17.57
2023-04-18T07:14:13.749Z,17.00
2023-04-18T07:16:40.723Z,17.37
2023-04-18T07:19:07.487Z,16.80
2023-04-18T07:21:34.195Z,17.13
2023-04-18T07:24:00.873Z,16.97
2023-04-18T07:26:27.712Z,16.40
2023-04-18T07:28:54.443Z,16.80
2023-04-18T07:31:21.262Z,17.57
2023-04-18T07:33:48.178Z,17.20
2023-04-18T07:36:14.933Z,17.40
2023-04-18T07:38:41.817Z,18.83
2023-04-18T07:41:08.527Z,18.20
2023-04-18T07:43:35.918Z,16.93
2023-04-18T07:46:02.812Z,17.10
2023-04-18T07:48:29.577Z,18.00
2023-04-18T07:50:56.255Z,17.57
2023-04-18T07:53:23.016Z,16.27
2023-04-18T07:55:50.188Z,18.50
2023-04-18T07:58:17.561Z,19.10
2023-04-18T08:00:44.907Z,18.00
2023-04-18T08:03:13.069Z,17.77
2023-04-18T08:05:41.778Z,18.20
2023-04-18T08:08:10.200Z,18.77
2023-04-18T08:10:37.539Z,17.67
2023-04-18T08:13:04.637Z,17.37
2023-04-18T08:15:32.724Z,17.60
2023-04-18T08:18:00.552Z,18.50
2023-04-18T08:20:27.651Z,17.77
2023-04-18T08:23:05.661Z,17.77
2023-04-18T08:25:33.546Z,18.83
2023-04-18T08:28:00.449Z,19.40
2023-04-18T08:30:27.318Z,18.97
2023-04-18T08:32:54.215Z,19.17
2023-04-18T08:35:21.207Z,18.23
2023-04-18T08:37:48.344Z,19.43
2023-04-18T08:40:15.102Z,18.90
2023-04-18T08:42:44.797Z,17.93
2023-04-18T08:45:16.587Z,18.77
2023-04-18T08:47:43.410Z,20.00
2023-04-18T08:50:10.809Z,18.17
2023-04-18T08:52:40.119Z,18.80
2023-04-18T08:55:07.623Z,19.30
2023-04-18T08:57:36.197Z,18.83
2023-04-18T09:00:09.958Z,18.27
2023-04-18T09:02:45.216Z,18.10
2023-04-18T09:05:19.758Z,18.60
2023-04-18T09:07:51.471Z,17.93
2023-04-18T09:10:36.570Z,18.43
2023-04-18T09:13:04.293Z,17.80
2023-04-18T09:15:31.339Z,17.90
2023-04-18T09:18:00.475Z,17.40
2023-04-18T09:20:41.114Z,20.37
2023-04-18T09:23:14.681Z,17.20
2023-04-18T09:25:44.580Z,16.50
2023-04-18T09:28:29.804Z,16.57
2023-04-18T09:30:58.841Z,16.20
2023-04-18T09:33:28.265Z,16.23
2023-04-18T09:35:57.069Z,15.23
2023-04-18T09:38:40.425Z,16.20
2023-04-18T09:41:09.019Z,15.73
2023-04-18T09:43:36.135Z,16.07
2023-04-18T09:46:04.465Z,15.20
2023-04-18T09:48:31.427Z,15.97
2023-04-18T09:51:01.579Z,15.40
2023-04-18T09:53:29.838Z,17.20
2023-04-18T09:55:57.904Z,16.07
2023-04-18T09:58:28.516Z,15.30
2023-04-18T10:00:56.336Z,15.07
2023-04-18T10:03:32.667Z,15.97
2023-04-18T10:05:59.554Z,16.07
2023-04-18T10:08:27.242Z,15.57
2023-04-18T10:10:55.960Z,15.83
2023-04-18T10:13:23.896Z,15.50
2023-04-18T10:15:52.381Z,14.90
2023-04-18T10:18:23.384Z,14.90
2023-04-18T10:20:50.202Z,15.30
2023-04-18T10:23:32.297Z,14.37
2023-04-18T10:25:59.491Z,15.27
2023-04-18T10:28:27.705Z,14.03
2023-04-18T10:31:02.862Z,13.93
2023-04-18T10:33:35.603Z,13.53
2023-04-18T10:36:08.957Z,15.07
2023-04-18T10:38:38.838Z,15.07
2023-04-18T10:41:32.931Z,14.53
2023-04-18T10:44:09.076Z,15.20
2023-04-18T10:46:40.016Z,13.13
2023-04-18T10:49:26.272Z,13.00
2023-04-18T10:51:54.697Z,12.70
2023-04-18T10:54:47.865Z,13.60
2023-04-18T10:57:15.257Z,13.30
2023-04-18T10:59:43.751Z,13.10
2023-04-18T11:02:25.848Z,13.50
2023-04-18T11:04:57.730Z,13.90
2023-04-18T11:07:34.238Z,13.60
2023-04-18T11:10:02.055Z,13.00
2023-04-18T11:12:34.170Z,13.23
2023-04-18T11:15:04.128Z,13.30
2023-04-18T11:17:32.845Z,13.47
2023-04-18T11:20:01.734Z,13.57
2023-04-18T11:22:28.610Z,13.70
2023-04-18T11:25:00.085Z,12.87
2023-04-18T11:27:27.025Z,12.50
2023-04-18T11:29:54.997Z,12.17
2023-04-18T11:32:24.389Z,11.47
2023-04-18T11:34:53.355Z,12.47
2023-04-18T11:37:20.618Z,11.27
2023-04-18T11:39:47.786Z,11.10
2023-04-18T11:42:14.766Z,11.40
2023-04-18T11:44:46.060Z,10.90
2023-04-18T11:47:43.228Z,10.90
2023-04-18T11:50:12.683Z,12.53
2023-04-18T11:52:42.753Z,12.27
2023-04-18T11:55:13.696Z,10.43
2023-04-18T11:57:41.779Z,10.20
2023-04-18T12:00:10.116Z,10.70
2023-04-18T12:02:43.293Z,10.57
2023-04-18T12:05:11.959Z,10.87
2023-04-18T12:07:39.962Z,10.17
2023-04-18T12:10:23.412Z,10.87
2023-04-18T12:12:52.115Z,9.67
2023-04-18T12:15:19.964Z,11.20
2023-04-18T12:17:48.600Z,12.03
2023-04-18T12:20:16.139Z,11.10
2023-04-18T12:22:49.495Z,11.10
2023-04-18T12:25:27.290Z,9.60
2023-04-18T12:28:03.576Z,9.97
2023-04-18T12:30:37.372Z,11.00
2023-04-18T12:33:04.934Z,10.00
2023-04-18T12:35:32.227Z,10.67
2023-04-18T12:38:00.894Z,10.10
2023-04-18T12:40:28.793Z,9.30
2023-04-18T12:42:56.392Z,10.27
2023-04-18T12:45:23.731Z,9.50
2023-04-18T12:47:52.315Z,10.30
2023-04-18T12:50:21.307Z,8.27
2023-04-18T12:52:48.377Z,8.40
2023-04-18T12:55:15.787Z,8.93
2023-04-18T12:57:42.949Z,8.80
2023-04-18T13:00:11.400Z,9.70
2023-04-18T13:02:40.302Z,9.80
2023-04-18T13:05:11.764Z,8.83
2023-04-18T13:07:40.540Z,9.50
2023-04-18T13:10:12.478Z,8.83
2023-04-18T13:12:40.679Z,9.03
2023-04-18T13:15:11.014Z,9.90
2023-04-18T13:17:41.304Z,9.50
2023-04-18T13:20:13.026Z,8.57
2023-04-18T13:22:41.268Z,9.07
2023-04-18T13:25:10.616Z,9.40
2023-04-18T13:27:40.916Z,9.20
2023-04-18T13:30:10.605Z,9.83
2023-04-18T13:32:39.159Z,9.90
2023-04-18T13:35:09.097Z,10.10
2023-04-18T13:37:36.722Z,9.40
2023-04-18T13:40:07.961Z,9.83
2023-04-18T13:42:37.368Z,9.83
2023-04-18T13:45:04.450Z,9.77
2023-04-18T13:47:31.397Z,9.23
2023-04-18T13:49:58.438Z,9.93
2023-04-18T13:52:25.855Z,8.80
2023-04-18T13:54:52.854Z,9.30
2023-04-18T13:57:19.723Z,9.80
2023-04-18T13:59:46.812Z,9.00
2023-04-18T14:02:13.934Z,8.30
2023-04-18T14:04:40.982Z,8.63
2023-04-18T14:07:08.109Z,8.10
2023-04-18T14:09:35.043Z,8.17
2023-04-18T14:12:02.137Z,8.30
2023-04-18T14:14:29.243Z,8.67
2023-04-18T14:16:56.025Z,9.13
2023-04-18T14:19:22.826Z,8.80
2023-04-18T14:21:49.552Z,8.83
2023-04-18T14:24:16.542Z,9.57
2023-04-18T14:26:43.976Z,8.43
2023-04-18T14:29:11.150Z,9.73
2023-04-18T14:31:38.169Z,8.83
2023-04-18T14:34:05.638Z,9.00
2023-04-18T14:36:32.728Z,9.40
2023-04-18T14:38:59.558Z,11.07
2023-04-18T14:41:26.459Z,9.33
2023-04-18T14:43:53.327Z,9.50
2023-04-18T14:46:21.461Z,8.93
2023-04-18T14:48:48.289Z,9.70
2023-04-18T14:51:16.484Z,9.00
2023-04-18T14:53:44.246Z,10.30
2023-04-18T14:56:11.442Z,9.40
2023-04-18T14:58:38.203Z,9.33
2023-04-18T15:01:05.319Z,9.90
2023-04-18T15:03:32.404Z,9.20
2023-04-18T15:05:59.727Z,9.43
2023-04-18T15:08:26.813Z,9.23
2023-04-18T15:10:53.781Z,10.23
2023-04-18T15:13:20.698Z,10.67
2023-04-18T15:15:56.921Z,9.53
2023-04-18T15:18:24.210Z,10.03
2023-04-18T15:20:51.712Z,10.60
2023-04-18T15:23:20.962Z,10.80
2023-04-18T15:25:47.769Z,10.43
2023-04-18T15:28:14.558Z,10.60
2023-04-18T15:30:41.805Z,11.70
2023-04-18T15:33:08.719Z,11.23
2023-04-18T15:35:36.128Z,11.17
2023-04-18T15:38:02.959Z,10.73
2023-04-18T15:40:29.855Z,12.10
2023-04-18T15:42:57.830Z,9.93
2023-04-18T15:45:25.404Z,12.20
2023-04-18T15:47:52.673Z,10.67
2023-04-18T15:50:19.649Z,10.10
2023-04-18T15:52:46.442Z,12.80
2023-04-18T15:55:13.611Z,11.53
2023-04-18T15:57:41.736Z,10.67
2023-04-18T16:00:16.352Z,9.43
2023-04-18T16:02:44.153Z,14.07
2023-04-18T16:05:12.430Z,12.57
2023-04-18T16:07:40.433Z,11.20
2023-04-18T16:10:10.180Z,9.33
2023-04-18T16:12:37.896Z,10.20
2023-04-18T16:15:09.458Z,9.40
2023-04-18T16:17:37.479Z,9.57
2023-04-18T16:20:09.026Z,9.33
2023-04-18T16:22:36.741Z,10.90
2023-04-18T16:25:04.703Z,10.70
2023-04-18T16:27:32.161Z,15.23
2023-04-18T16:29:59.029Z,9.90
2023-04-18T16:32:26.420Z,9.80
2023-04-18T16:34:53.208Z,8.97
2023-04-18T16:37:20.316Z,9.93
2023-04-18T16:39:47.275Z,9.77
2023-04-18T16:42:15.890Z,9.60
2023-04-18T16:44:45.988Z,8.90
2023-04-18T16:47:13.156Z,9.60
2023-04-18T16:49:40.636Z,9.57
2023-04-18T16:52:07.777Z,9.17
2023-04-18T16:54:35.011Z,9.83
2023-04-18T16:57:02.820Z,10.50
2023-04-18T16:59:29.557Z,10.40
2023-04-18T17:01:56.559Z,9.87
2023-04-18T17:04:26.777Z,10.20
2023-04-18T17:06:53.877Z,9.80
2023-04-18T17:09:20.707Z,11.37
2023-04-18T17:11:47.389Z,11.13
2023-04-18T17:14:15.148Z,10.50
2023-04-18T17:16:42.623Z,10.70
2023-04-18T17:19:10.311Z,10.90
2023-04-18T17:21:38.115Z,10.90
2023-04-18T17:24:07.014Z,11.47
2023-04-18T17:26:34.924Z,11.03
2023-04-18T17:29:04.024Z,11.67
2023-04-18T17:31:34.135Z,11.50
2023-04-18T17:34:01.360Z,11.50
2023-04-18T17:36:28.547Z,12.20
2023-04-18T17:38:55.859Z,12.07
2023-04-18T17:41:23.202Z,10.97
2023-04-18T17:43:53.478Z,12.53
2023-04-18T17:46:20.859Z,11.80
2023-04-18T17:48:47.726Z,10.67
2023-04-18T17:51:16.387Z,11.30
2023-04-18T17:53:43.915Z,11.13
2023-04-18T17:56:10.847Z,11.17
2023-04-18T17:58:37.607Z,11.03
2023-04-18T18:01:13.378Z,10.13
2023-04-18T18:03:40.594Z,10.90
2023-04-18T18:06:07.917Z,11.60
2023-04-18T18:08:34.692Z,10.33
2023-04-18T18:11:02.882Z,11.50
2023-04-18T18:13:29.706Z,10.87
2023-04-18T18:15:57.579Z,11.20
2023-04-18T18:18:24.610Z,11.90
2023-04-18T18:20:51.603Z,12.50
2023-04-18T18:23:18.783Z,11.80
2023-04-18T18:25:46.054Z,10.80
2023-04-18T18:28:13.232Z,11.50
2023-04-18T18:30:40.103Z,10.87
2023-04-18T18:33:07.281Z,10.00
2023-04-18T18:35:35.030Z,11.10
2023-04-18T18:38:02.132Z,11.10
2023-04-18T18:40:29.038Z,10.60
2023-04-18T18:42:59.087Z,11.00
2023-04-18T18:45:26.047Z,11.10
2023-04-18T18:47:53.285Z,11.50
2023-04-18T18:50:20.462Z,11.47
2023-04-18T18:52:47.646Z,11.03
2023-04-18T18:55:16.260Z,11.20
2023-04-18T18:57:43.033Z,11.67
2023-04-18T19:00:13.392Z,11.50
2023-04-18T19:02:40.464Z,11.67
2023-04-18T19:05:08.098Z,12.03
2023-04-18T19:07:35.614Z,12.00
2023-04-18T19:10:03.471Z,12.20
2023-04-18T19:12:30.360Z,11.53
2023-04-18T19:14:57.242Z,12.40
2023-04-18T19:17:24.870Z,12.30
2023-04-18T19:19:52.663Z,12.57
2023-04-18T19:22:19.856Z,12.87
2023-04-18T19:24:47.026Z,12.47
2023-04-18T19:27:13.878Z,13.33
2023-04-18T19:29:46.752Z,12.57
2023-04-18T19:32:13.555Z,12.13
2023-04-18T19:34:40.717Z,12.90
2023-04-18T19:37:07.906Z,12.00
2023-04-18T19:39:35.173Z,12.13
2023-04-18T19:42:04.986Z,12.43
2023-04-18T19:44:32.391Z,12.47
2023-04-18T19:46:59.583Z,12.03
2023-04-18T19:49:26.371Z,13.03
2023-04-18T19:51:53.226Z,13.00
2023-04-18T19:54:21.882Z,12.93
2023-04-18T19:56:49.359Z,12.77
2023-04-18T19:59:16.432Z,11.43
2023-04-18T20:01:43.863Z,13.07
2023-04-18T20:04:11.290Z,12.40
2023-04-18T20:06:38.105Z,13.33
2023-04-18T20:09:06.032Z,11.87
2023-04-18T20:11:33.401Z,12.63
2023-04-18T20:14:00.683Z,12.10
2023-04-18T20:16:27.940Z,12.63
2023-04-18T20:18:55.887Z,12.30
2023-04-18T20:21:24.925Z,11.83
2023-04-18T20:23:51.822Z,13.33
2023-04-18T20:26:19.400Z,12.03
2023-04-18T20:28:46.600Z,11.60
2023-04-18T20:31:13.827Z,13.40
2023-04-18T20:33:41.280Z,12.57
2023-04-18T20:36:08.692Z,12.73
2023-04-18T20:38:37.241Z,12.80
2023-04-18T20:41:04.195Z,12.80
2023-04-18T20:43:37.226Z,12.20
2023-04-18T20:46:04.568Z,11.23
2023-04-18T20:48:31.765Z,12.33
2023-04-18T20:50:58.895Z,12.23
2023-04-18T20:53:27.071Z,13.03
2023-04-18T20:55:54.285Z,12.10
2023-04-18T20:58:21.519Z,13.17
2023-04-18T21:00:48.916Z,12.53
2023-04-18T21:03:16.284Z,12.47
2023-04-18T21:05:44.024Z,12.80
2023-04-18T21:08:13.876Z,12.37
2023-04-18T21:10:40.673Z,12.77
2023-04-18T21:13:09.168Z,11.80
2023-04-18T21:15:36.304Z,12.40
2023-04-18T21:18:03.170Z,11.53
2023-04-18T21:20:29.950Z,10.63
2023-04-18T21:22:56.730Z,11.23
2023-04-18T21:25:23.409Z,10.13
2023-04-18T21:27:50.849Z,10.60
2023-04-18T21:30:17.789Z,10.40
2023-04-18T21:32:46.062Z,11.00
2023-04-18T21:35:13.130Z,9.70
2023-04-18T21:37:39.829Z,9.73
2023-04-18T21:40:07.430Z,10.40
2023-04-18T21:42:35.423Z,9.80
2023-04-18T21:45:02.415Z,9.10
2023-04-18T21:47:29.186Z,9.20
2023-04-18T21:49:55.949Z,8.90
2023-04-18T21:52:22.841Z,9.30
2023-04-18T21:54:49.631Z,8.87
2023-04-18T21:57:16.403Z,8.67
2023-04-18T21:59:43.128Z,7.77
2023-04-18T22:02:10.454Z,8.50
2023-04-18T22:04:38.134Z,8.80
2023-04-18T22:07:05.028Z,7.63
2023-04-18T22:09:34.364Z,8.27
2023-04-18T22:12:03.665Z,8.20
2023-04-18T22:14:32.227Z,8.33
2023-04-18T22:16:59.113Z,8.03
2023-04-18T22:19:29.414Z,7.87
2023-04-18T22:21:56.452Z,7.83
2023-04-18T22:24:24.583Z,7.63
2023-04-18T22:26:51.594Z,7.43
2023-04-18T22:29:18.329Z,8.67
2023-04-18T22:31:45.347Z,6.97
2023-04-18T22:34:12.167Z,6.70
2023-04-18T22:36:38.991Z,6.97
2023-04-18T22:39:06.293Z,6.43
2023-04-18T22:41:33.096Z,7.17
2023-04-18T22:43:59.837Z,6.57
2023-04-18T22:46:27.224Z,6.80
2023-04-18T22:48:54.260Z,6.17
2023-04-18T22:51:21.035Z,7.03
2023-04-18T22:53:47.738Z,7.10
2023-04-18T22:56:14.519Z,7.03
2023-04-18T22:58:41.212Z,7.00
2023-04-18T23:01:08.431Z,6.40
2023-04-18T23:03:35.368Z,6.77
2023-04-18T23:06:02.153Z,6.77
2023-04-18T23:08:28.969Z,6.27
2023-04-18T23:10:55.842Z,6.37
2023-04-18T23:13:22.909Z,7.30
2023-04-18T23:15:49.788Z,7.03
2023-04-18T23:18:16.555Z,7.27
2023-04-18T23:20:43.250Z,6.60
2023-04-18T23:23:09.953Z,5.90
2023-04-18T23:25:37.121Z,7.03
2023-04-18T23:28:03.991Z,6.03
2023-04-18T23:30:31.159Z,5.70
2023-04-18T23:32:57.886Z,5.90
2023-04-18T23:35:24.639Z,6.33
2023-04-18T23:37:51.367Z,5.93
2023-04-18T23:40:18.213Z,7.10
2023-04-18T23:42:45.029Z,5.43
2023-04-18T23:45:12.103Z,6.30
2023-04-18T23:47:38.858Z,6.40
2023-04-18T23:50:06.131Z,6.67
2023-04-18T23:52:32.837Z,6.63
2023-04-18T23:55:00.764Z,6.37
2023-04-18T23:57:27.764Z,6.40
2023-04-18T23:59:54.424Z,7.70
